Downstream station:
SHEF ID: GCSO2 Cave Springs Br nr South W C
STATION TYPE:
STAGE STAGE(2) RIV-FLOW BAT-LOAD
ft ft cfs volt
Ccp-Rev Ccp-Rev Ccp-Rev Ccp-Rev
(US/Central)
03/29 00:00 3.35 4.66 0 12.41
03/29 01:00 3.30 4.64 0 12.41
03/29 02:00 3.26 4.64 0 12.41
03/29 03:00 3.25 4.65 0 12.41
03/29 04:00 3.25 4.66 0 12.33
03/29 05:00 3.27 4.66 0 12.33
03/29 06:00 3.30 4.65 0 12.33
03/29 07:00 3.35 4.66 0 12.33
03/29 08:00 3.37 4.65 0 12.33
03/29 09:00 3.51 4.65 0 12.33
03/29 10:00 3.81 4.66 0 12.33
03/29 11:00 4.11 4.65 0 13.21
03/29 12:00 4.37 4.66 2 13.37
03/29 13:00 4.52 4.66 4 13.29
03/29 14:00 4.38 4.65 2 13.21
03/29 15:00 4.38 4.64 2 13.21
03/29 16:00 4.32 4.65 2 13.29
03/29 17:00 4.26 4.64 1 13.21
03/29 18:00 4.24 4.64 1 13.29
03/29 19:00 4.09 4.63 0 13.21
03/29 20:00 3.93 4.65 0 12.89
03/29 21:00 3.82 4.64 0 12.65
03/29 22:00 3.77 4.63 0 12.49
03/29 23:00 3.73 4.65 0 12.41